createdAt,value
2023-01-19T00:03:03.361Z,1.4
2023-01-19T00:13:03.575Z,1.5
2023-01-19T00:23:03.885Z,1.3
2023-01-19T00:33:04.833Z,1.3
2023-01-19T00:43:05.475Z,1.4
2023-01-19T00:53:06.375Z,1.5
2023-01-19T01:03:06.977Z,1.5
2023-01-19T01:13:21.684Z,1.5
2023-01-19T01:23:07.466Z,1.6
2023-01-19T01:33:08.360Z,1.7
2023-01-19T01:43:08.418Z,1.7
2023-01-19T01:53:09.334Z,1.7
2023-01-19T02:03:09.711Z,1.6
2023-01-19T02:13:09.872Z,1.7
2023-01-19T02:23:10.113Z,1.7
2023-01-19T02:33:10.326Z,1.7
2023-01-19T02:43:11.317Z,1.7
2023-01-19T02:53:11.756Z,1.7
2023-01-19T03:03:12.115Z,1.6
2023-01-19T03:13:13.094Z,1.6
2023-01-19T03:23:13.209Z,1.7
2023-01-19T03:33:14.204Z,1.7
2023-01-19T03:43:14.394Z,1.7
2023-01-19T03:53:15.160Z,1.7
2023-01-19T04:03:16.089Z,1.8
2023-01-19T04:13:16.813Z,1.9
2023-01-19T04:23:17.761Z,1.9
2023-01-19T04:33:18.486Z,1.7
2023-01-19T04:43:19.271Z,1.2
2023-01-19T04:53:19.650Z,0.5
2023-01-19T05:03:20.765Z,0.4
2023-01-19T05:13:21.084Z,0.4
2023-01-19T05:23:22.041Z,0.4
2023-01-19T05:33:22.879Z,0.3
2023-01-19T05:43:23.466Z,0.3
2023-01-19T05:53:24.348Z,0.2
2023-01-19T06:03:24.569Z,0.2
2023-01-19T06:13:25.290Z,0.2
2023-01-19T06:23:25.697Z,0.2
2023-01-19T06:43:26.449Z,0.1
2023-01-19T06:53:26.545Z,0.1
2023-01-19T07:03:27.525Z,0.2
2023-01-19T07:13:27.994Z,0.2
2023-01-19T07:23:28.850Z,0.2
2023-01-19T07:33:29.093Z,0.2
2023-01-19T07:43:29.322Z,0.3
2023-01-19T07:53:29.527Z,0.4
2023-01-19T08:03:29.707Z,0.5
2023-01-19T08:13:30.607Z,0.5
2023-01-19T08:23:31.078Z,0.6
2023-01-19T08:33:31.474Z,0.7
2023-01-19T08:43:34.052Z,0.7
2023-01-19T08:53:32.854Z,0.8
2023-01-19T09:03:33.198Z,0.9
2023-01-19T09:13:33.705Z,0.9
2023-01-19T09:33:34.472Z,1
2023-01-19T09:43:35.464Z,1.1
2023-01-19T09:53:35.891Z,1.1
2023-01-19T10:03:36.426Z,1.1
2023-01-19T10:13:37.056Z,1.2
2023-01-19T10:23:37.812Z,1.2
2023-01-19T10:33:38.062Z,1.2
2023-01-19T10:43:38.841Z,1.3
2023-01-19T10:53:39.827Z,1.3
2023-01-19T11:03:40.010Z,1.3
2023-01-19T11:13:40.210Z,1.3
2023-01-19T11:33:41.364Z,1.5
2023-01-19T11:43:48.881Z,1.5
2023-01-19T11:53:43.349Z,1.6
2023-01-19T12:03:44.501Z,1.6
2023-01-19T12:13:44.456Z,1.6
2023-01-19T12:23:44.559Z,1.6
2023-01-19T12:33:44.676Z,1.6
2023-01-19T12:43:45.169Z,1.6
2023-01-19T12:53:46.187Z,1.6
2023-01-19T13:03:46.776Z,1.8
2023-01-19T13:13:47.464Z,1.9
2023-01-19T13:14:31.159Z,1.9
2023-01-19T13:23:54.047Z,2.1
2023-01-19T13:33:54.736Z,2
2023-01-19T13:43:55.661Z,2
2023-01-19T13:53:56.233Z,2
2023-01-19T14:03:56.831Z,2
2023-01-19T14:13:56.943Z,2.1
2023-01-19T14:23:57.555Z,2.1
2023-01-19T14:33:57.941Z,2.2
2023-01-19T14:43:58.885Z,2.3
2023-01-19T15:03:59.441Z,2.2
2023-01-19T15:13:59.826Z,2.2
2023-01-19T15:24:00.422Z,2.2
2023-01-19T15:34:01.020Z,2.1
2023-01-19T15:44:01.225Z,1.9
2023-01-19T15:54:02.065Z,1.8
2023-01-19T16:04:02.685Z,1.7
2023-01-19T16:14:03.552Z,1.6
2023-01-19T16:34:04.923Z,1.5
2023-01-19T16:54:06.611Z,1.4
2023-01-19T17:14:07.695Z,1.3
2023-01-19T17:34:08.374Z,1.3
2023-01-19T17:44:09.410Z,1.2
2023-01-19T17:54:10.454Z,1.2
2023-01-19T18:14:11.761Z,1.1
2023-01-19T18:24:12.137Z,1.1
2023-01-19T18:44:12.527Z,1.2
2023-01-19T18:54:13.185Z,1.2
2023-01-19T19:14:14.440Z,1.4
2023-01-19T19:44:16.121Z,1.5
2023-01-19T19:54:16.514Z,1.6
2023-01-19T20:04:17.067Z,1.6
2023-01-19T20:14:18.042Z,1.6
2023-01-19T20:24:18.621Z,1.6
2023-01-19T20:34:18.994Z,1.6
2023-01-19T20:44:19.087Z,1.6
2023-01-19T20:54:19.888Z,1.5
2023-01-19T21:04:20.156Z,1.5
2023-01-19T21:14:20.765Z,1.5
2023-01-19T21:24:21.372Z,1.5
2023-01-19T21:34:21.452Z,1.6
2023-01-19T21:44:22.172Z,1.6
2023-01-19T21:54:22.988Z,1.6
2023-01-19T22:04:23.174Z,1.6
2023-01-19T22:14:23.737Z,1.6
2023-01-19T22:24:24.596Z,1.6
2023-01-19T22:34:25.104Z,1.5
2023-01-19T22:44:25.785Z,1.5
2023-01-19T22:54:26.550Z,1.5
2023-01-19T23:04:27.261Z,1.5
2023-01-19T23:14:27.642Z,1.4
2023-01-19T23:24:28.349Z,1.4
2023-01-19T23:34:28.450Z,1.4
2023-01-19T23:44:29.348Z,1.3
2023-01-19T23:54:30.315Z,1.1
